Portada
METAR-TAF:

METAR-TAF

Aeroports :

Amman, Jordània

latitud: 31-59N, longitud: 035-59E, altitud: 767 m

Observació

L'informe es va fer fa 34 minuts, a les 00:00 UTC
Vent 7 kt del Oest
Temperatura 23°C
Humitat 36%
Pressió 1011 hPa
Visibilitat: 5000 m
calitja

METAR: OJAM 160000Z 26007KT 5000 HZ NSC 23/07 Q1011 NOSIG

Hora: 03:34 (00:34 UTC)

Pronòstic

L'informe es va fer fa 1 hora i 44 minuts, a les 22:50 UTC
Pronòstic vàlid del 16 a les 00 UTC al 17 a les 06 UTC
Vent 2 kt amb direcció variable
Visibilitat: 7000 m
Temporalment
l' 16 a les 03 UTC al 16 a les 05 UTC
Visibilitat: 4000 m
calitja
Evolucionant progressivament
l' 16 a les 05 UTC al 16 a les 07 UTC
Vent 10 kt del Oest
Visibilitat: 5000 m
Escasses núvols a una alçada de 3000 ft
calitja

TAF: OJAM 152250Z 1600/1706 VRB02KT 7000 NSC TEMPO 1603/1605 4000 HZ BECMG 1605/1607 28010KT 5000 HZ FEW030

Observacions i pronòstics meteorològics de més de 4000 aeroports (METAR i TAF).

Les estacions disponibles són els punts grocs i vermells al mapa.

Posi el ratolí al punt desitjat per veure el nom de l'estació.

Feu clic per veure les observacions i els pronòstics meteorològics.

Per canviar el mapa: feu clic els botons verds amb una creu de color negre per apropar; al botó verd amb un guió per allunyar la imatge; o en les fletxes verdes per a mapes adjacents.


METAR-TAF: